Time;durP1;ratioP1;P1;durP2;ratioP2;P2;SDS_P1;SDS_P2;PMS_P1;PMS_P2;Temp;Humidity;BMP_temperature;BMP_pressure;BME280_temperature;BME280_humidity;BME280_pressure;Samples;Min_cycle;Max_cycle;Signal;HPM_P1;HPM_P2
2023/08/28 00:01:03;;;;;;;3.53;2.40;;;15.50;99.90;;;;;;5047931;28;20600;-63
2023/08/28 00:03:32;;;;;;;4.70;2.70;;;15.50;99.90;;;;;;5051472;28;20239;-63
2023/08/28 00:06:01;;;;;;;3.00;2.80;;;15.40;99.90;;;;;;5047136;28;20225;-63
2023/08/28 00:08:30;;;;;;;2.67;2.43;;;15.40;99.90;;;;;;5042982;28;20203;-63
2023/08/28 00:10:58;;;;;;;2.30;2.20;;;15.40;99.90;;;;;;5028490;28;20223;-63
2023/08/28 00:13:27;;;;;;;3.20;2.30;;;15.40;99.90;;;;;;5040294;28;20266;-62
2023/08/28 00:15:55;;;;;;;2.50;2.40;;;15.40;99.90;;;;;;5039086;28;20224;-63
2023/08/28 00:18:24;;;;;;;2.53;2.40;;;15.30;99.90;;;;;;5027309;28;20242;-62
2023/08/28 00:20:52;;;;;;;2.60;2.40;;;15.30;99.90;;;;;;5045328;28;20190;-62
2023/08/28 00:23:22;;;;;;;2.63;2.43;;;15.30;99.90;;;;;;5039129;28;20226;-63
2023/08/28 00:25:50;;;;;;;2.47;2.27;;;15.20;99.90;;;;;;5040870;28;20316;-63
2023/08/28 00:28:18;;;;;;;2.60;2.40;;;15.20;99.90;;;;;;5039159;28;20216;-63
2023/08/28 00:30:46;;;;;;;2.73;2.10;;;15.20;99.90;;;;;;5038919;28;20218;-62
2023/08/28 00:33:15;;;;;;;2.73;2.53;;;15.20;99.90;;;;;;5042271;28;20267;-62
2023/08/28 00:35:43;;;;;;;2.50;2.33;;;15.20;99.90;;;;;;5027513;28;20304;-62
2023/08/28 00:38:12;;;;;;;2.37;2.17;;;15.20;99.90;;;;;;5041760;28;20302;-62
2023/08/28 00:40:41;;;;;;;3.43;2.50;;;15.20;99.90;;;;;;5045288;28;20218;-62
2023/08/28 00:43:10;;;;;;;3.73;2.60;;;15.20;99.90;;;;;;5042702;28;20229;-62
2023/08/28 00:45:42;;;;;;;2.60;2.40;;;15.20;99.90;;;;;;5043890;28;20226;-63
2023/08/28 00:48:11;;;;;;;2.80;2.33;;;15.20;99.90;;;;;;5042872;28;20192;-63
2023/08/28 00:50:39;;;;;;;2.63;2.43;;;15.10;99.90;;;;;;5045380;28;20217;-63
2023/08/28 00:53:11;;;;;;;3.80;2.57;;;15.10;99.90;;;;;;5040349;28;20217;-63
2023/08/28 00:55:41;;;;;;;4.97;2.70;;;15.10;99.90;;;;;;5038634;28;20225;-64
2023/08/28 00:58:09;;;;;;;2.80;2.60;;;15.10;99.90;;;;;;5046895;28;20289;-63
2023/08/28 01:00:38;;;;;;;2.87;2.60;;;15.10;99.90;;;;;;5025501;28;20264;-63
2023/08/28 01:03:06;;;;;;;2.83;2.60;;;15.10;99.90;;;;;;5047988;28;20557;-63
2023/08/28 01:05:45;;;;;;;2.53;2.40;;;15.10;99.90;;;;;;5044745;28;20232;-63
2023/08/28 01:08:20;;;;;;;2.67;2.57;;;15.10;99.90;;;;;;5044247;28;20222;-63
2023/08/28 01:10:55;;;;;;;3.00;2.57;;;15.10;99.90;;;;;;5039347;28;20226;-63
2023/08/28 01:13:28;;;;;;;3.73;2.83;;;15.10;99.90;;;;;;5046899;28;20743;-63
2023/08/28 01:15:59;;;;;;;2.80;2.57;;;15.00;99.90;;;;;;5042716;28;20230;-63
2023/08/28 01:18:28;;;;;;;2.70;2.50;;;15.00;99.90;;;;;;5030947;28;20701;-62
2023/08/28 01:20:58;;;;;;;3.80;3.00;;;15.00;99.90;;;;;;5041497;28;20202;-61
2023/08/28 01:23:32;;;;;;;4.97;2.80;;;15.00;99.90;;;;;;5026078;28;20287;-62
2023/08/28 01:26:02;;;;;;;3.23;2.97;;;15.00;99.90;;;;;;5046132;28;20223;-62
2023/08/28 01:28:31;;;;;;;3.57;2.93;;;14.90;99.90;;;;;;5048155;28;20225;-62
2023/08/28 01:30:59;;;;;;;3.67;2.77;;;14.90;99.90;;;;;;5047568;28;20642;-62
2023/08/28 01:33:27;;;;;;;2.97;2.77;;;14.90;99.90;;;;;;5047305;28;20231;-63
2023/08/28 01:36:05;;;;;;;4.50;2.70;;;14.90;99.90;;;;;;5029764;28;20203;-61
2023/08/28 01:38:38;;;;;;;2.93;2.70;;;14.90;99.90;;;;;;5039590;28;20635;-63
2023/08/28 01:41:10;;;;;;;2.73;2.60;;;14.90;99.90;;;;;;5045580;28;20217;-63
2023/08/28 01:43:43;;;;;;;6.57;3.10;;;14.90;99.90;;;;;;5047531;28;20230;-63
2023/08/28 01:46:12;;;;;;;3.57;3.20;;;14.90;99.90;;;;;;5048552;28;20231;-62
2023/08/28 01:48:45;;;;;;;4.93;3.13;;;14.90;99.90;;;;;;5048037;28;20270;-62
2023/08/28 01:51:13;;;;;;;4.73;3.20;;;14.90;99.90;;;;;;5047613;28;20308;-62
2023/08/28 01:53:41;;;;;;;3.57;3.00;;;14.90;99.90;;;;;;5045393;28;20197;-62
2023/08/28 01:56:20;;;;;;;4.83;3.33;;;15.00;99.90;;;;;;5045417;28;20237;-62
2023/08/28 01:58:51;;;;;;;3.73;2.93;;;15.00;99.90;;;;;;5045649;28;20226;-62
2023/08/28 02:01:19;;;;;;;3.50;3.20;;;15.00;99.90;;;;;;5049595;28;20581;-62
2023/08/28 02:03:48;;;;;;;3.20;3.07;;;15.00;99.90;;;;;;5048762;28;20214;-62
2023/08/28 02:06:17;;;;;;;3.77;3.43;;;15.10;99.90;;;;;;5051113;28;20255;-63
2023/08/28 02:08:45;;;;;;;6.33;3.27;;;15.10;99.90;;;;;;5049229;28;20195;-62
2023/08/28 02:11:13;;;;;;;4.03;3.27;;;15.10;99.90;;;;;;5046867;28;20240;-63
2023/08/28 02:13:43;;;;;;;7.23;3.47;;;15.10;99.90;;;;;;5044663;28;20227;-62
2023/08/28 02:16:11;;;;;;;3.10;3.00;;;15.10;99.90;;;;;;5048301;28;20210;-62
2023/08/28 02:18:40;;;;;;;3.50;3.20;;;15.20;99.90;;;;;;5046268;28;20223;-62
2023/08/28 02:21:08;;;;;;;3.50;3.23;;;15.20;99.90;;;;;;5046613;28;20209;-62
2023/08/28 02:23:37;;;;;;;3.10;2.90;;;15.10;99.90;;;;;;5046367;28;20208;-62
2023/08/28 02:26:05;;;;;;;4.60;3.30;;;15.10;99.90;;;;;;5045265;28;20340;-63
2023/08/28 02:28:33;;;;;;;3.17;2.97;;;15.10;99.90;;;;;;5048220;28;20334;-62
2023/08/28 02:31:04;;;;;;;4.20;3.20;;;15.10;99.90;;;;;;5046292;28;20262;-62
2023/08/28 02:33:32;;;;;;;3.67;3.17;;;15.10;99.90;;;;;;5048737;28;20226;-63
2023/08/28 02:36:02;;;;;;;7.60;3.80;;;15.10;99.90;;;;;;5047094;28;20195;-62
2023/08/28 02:38:30;;;;;;;4.43;3.50;;;15.10;99.90;;;;;;5043451;28;20663;-62
2023/08/28 02:41:04;;;;;;;5.70;3.30;;;15.10;99.90;;;;;;5044587;28;20222;-62
2023/08/28 02:43:32;;;;;;;4.70;3.20;;;15.10;99.90;;;;;;5047686;28;20223;-63
2023/08/28 02:46:03;;;;;;;3.70;3.30;;;15.00;99.90;;;;;;5044580;28;20226;-62
2023/08/28 02:48:32;;;;;;;5.37;3.70;;;15.00;99.90;;;;;;5045155;28;20711;-62
2023/08/28 02:51:00;;;;;;;3.53;3.23;;;15.00;99.90;;;;;;5046300;28;20195;-61
2023/08/28 02:53:28;;;;;;;3.60;3.30;;;15.00;99.90;;;;;;5032104;28;20202;-62
2023/08/28 02:56:35;;;;;;;3.60;3.30;;;15.00;99.90;;;;;;5046436;28;20215;-63
2023/08/28 02:59:04;;;;;;;3.83;3.53;;;15.00;99.90;;;;;;4963101;28;20224;-63
2023/08/28 03:01:35;;;;;;;3.70;3.40;;;15.00;99.90;;;;;;4965906;28;20229;-62
2023/08/28 03:04:04;;;;;;;3.70;3.10;;;14.90;99.90;;;;;;4992144;28;20313;-61
2023/08/28 03:06:35;;;;;;;4.03;3.40;;;14.90;99.90;;;;;;5045877;28;20596;-61
2023/08/28 03:09:04;;;;;;;6.30;3.20;;;14.90;99.90;;;;;;5042081;28;20201;-62
2023/08/28 03:11:32;;;;;;;6.10;3.60;;;14.80;99.90;;;;;;5041088;28;20208;-62
2023/08/28 03:14:01;;;;;;;3.80;3.30;;;14.80;99.90;;;;;;5022110;28;20314;-63
2023/08/28 03:16:29;;;;;;;3.53;3.23;;;14.70;99.90;;;;;;5050413;28;20221;-62
2023/08/28 03:18:59;;;;;;;4.07;3.70;;;14.60;99.90;;;;;;5044622;28;20741;-62
2023/08/28 03:21:27;;;;;;;5.07;3.43;;;14.50;99.90;;;;;;5043293;28;20225;-62
2023/08/28 03:23:56;;;;;;;3.60;3.00;;;14.50;99.90;;;;;;5043985;28;20196;-61
2023/08/28 03:26:25;;;;;;;3.30;3.20;;;14.50;99.90;;;;;;5042240;28;20217;-62
2023/08/28 03:28:54;;;;;;;4.03;3.60;;;14.40;99.90;;;;;;5042375;28;20228;-62
2023/08/28 03:31:22;;;;;;;3.50;3.20;;;14.40;99.90;;;;;;5025094;28;20215;-63
2023/08/28 03:33:51;;;;;;;4.60;3.70;;;14.30;99.90;;;;;;5043112;28;20237;-62
2023/08/28 03:36:20;;;;;;;5.97;3.50;;;14.30;99.90;;;;;;5042331;28;20240;-62
2023/08/28 03:38:49;;;;;;;3.70;3.47;;;14.20;99.90;;;;;;5039524;28;20214;-62
2023/08/28 03:41:17;;;;;;;3.80;3.60;;;14.10;99.90;;;;;;5049110;28;20224;-62
2023/08/28 03:43:45;;;;;;;3.63;3.33;;;14.10;99.90;;;;;;5031181;28;20265;-62
2023/08/28 03:46:14;;;;;;;5.40;3.83;;;14.00;99.90;;;;;;5045229;28;20530;-62
2023/08/28 03:48:42;;;;;;;4.20;3.50;;;14.00;99.90;;;;;;5042710;28;20220;-62
2023/08/28 03:51:10;;;;;;;5.43;3.70;;;14.00;99.90;;;;;;5045871;28;20198;-62
2023/08/28 03:53:42;;;;;;;4.00;3.70;;;13.90;99.90;;;;;;5045988;28;20243;-63
2023/08/28 03:56:11;;;;;;;4.03;3.73;;;13.80;99.90;;;;;;5040748;28;20225;-63
2023/08/28 03:58:39;;;;;;;3.80;3.60;;;13.80;99.90;;;;;;5042445;28;20232;-62
2023/08/28 04:01:07;;;;;;;4.73;4.20;;;13.80;99.90;;;;;;5045423;28;20220;-62
2023/08/28 04:03:35;;;;;;;4.93;3.90;;;13.70;99.90;;;;;;5050931;28;20236;-62
2023/08/28 04:06:04;;;;;;;4.90;4.40;;;13.70;99.90;;;;;;5048505;28;20233;-62
2023/08/28 04:08:32;;;;;;;6.93;4.13;;;13.70;99.90;;;;;;5045442;28;20201;-62
2023/08/28 04:11:02;;;;;;;6.90;4.40;;;13.70;99.90;;;;;;5046243;28;20225;-62
2023/08/28 04:13:31;;;;;;;6.63;4.10;;;13.70;99.90;;;;;;5044144;28;20583;-62
2023/08/28 04:15:59;;;;;;;6.27;3.83;;;13.60;99.90;;;;;;5040222;28;20294;-62
2023/08/28 04:18:28;;;;;;;4.33;3.93;;;13.60;99.90;;;;;;5047465;28;20217;-62
2023/08/28 04:20:56;;;;;;;6.60;4.00;;;13.70;99.90;;;;;;5043400;28;20737;-62
2023/08/28 04:23:24;;;;;;;8.77;4.70;;;13.70;99.90;;;;;;5042519;28;20189;-62
2023/08/28 04:25:53;;;;;;;4.97;4.57;;;13.70;99.90;;;;;;5044248;28;20218;-62
2023/08/28 04:28:23;;;;;;;4.50;4.17;;;13.70;99.90;;;;;;5042442;28;20222;-62
2023/08/28 04:30:51;;;;;;;5.30;4.30;;;13.70;99.90;;;;;;5043360;28;20248;-62
2023/08/28 04:33:20;;;;;;;8.77;4.20;;;13.70;99.90;;;;;;5041954;28;20688;-62
2023/08/28 04:35:48;;;;;;;4.87;4.30;;;13.70;99.90;;;;;;5047924;28;20206;-62
2023/08/28 04:38:19;;;;;;;4.50;4.03;;;13.70;99.90;;;;;;5043296;28;20220;-63
2023/08/28 04:40:48;;;;;;;4.67;4.27;;;13.70;99.90;;;;;;5046886;28;20591;-63
2023/08/28 04:43:16;;;;;;;6.10;4.03;;;13.70;99.90;;;;;;5046458;28;20747;-63
2023/08/28 04:45:49;;;;;;;6.80;4.73;;;13.70;99.90;;;;;;5040930;28;20267;-62
2023/08/28 04:48:19;;;;;;;5.67;4.47;;;13.70;99.90;;;;;;5049243;28;20654;-62
2023/08/28 04:50:47;;;;;;;6.67;4.80;;;13.60;99.90;;;;;;5030935;28;20572;-62
2023/08/28 04:53:15;;;;;;;6.20;4.87;;;13.60;99.90;;;;;;5049307;28;20221;-62
2023/08/28 04:55:43;;;;;;;7.07;4.50;;;13.60;99.90;;;;;;5051544;28;20217;-62
2023/08/28 04:58:12;;;;;;;13.47;4.80;;;13.50;99.90;;;;;;5049251;28;20216;-62
2023/08/28 05:00:40;;;;;;;8.20;5.30;;;13.50;99.90;;;;;;5051815;28;20232;-62
2023/08/28 05:03:10;;;;;;;10.20;5.73;;;13.50;99.90;;;;;;5051943;28;20349;-63
2023/08/28 05:05:38;;;;;;;5.53;5.03;;;13.50;99.90;;;;;;5050620;28;20233;-62
2023/08/28 05:08:07;;;;;;;6.63;5.70;;;13.50;99.90;;;;;;5050939;28;20563;-63
2023/08/28 05:10:36;;;;;;;6.63;6.00;;;13.50;99.90;;;;;;5053155;28;20225;-62
2023/08/28 05:13:04;;;;;;;9.30;6.30;;;13.50;99.90;;;;;;5050262;28;20240;-63
2023/08/28 05:15:33;;;;;;;8.00;6.60;;;13.50;99.90;;;;;;5052424;28;20712;-62
2023/08/28 05:18:02;;;;;;;10.07;7.20;;;13.40;99.90;;;;;;5047304;28;20189;-62
2023/08/28 05:20:32;;;;;;;10.07;7.13;;;13.50;99.90;;;;;;5033580;28;20207;-62
2023/08/28 05:23:00;;;;;;;9.43;7.87;;;13.50;99.90;;;;;;5051752;28;20224;-64
2023/08/28 05:25:31;;;;;;;15.60;8.40;;;13.50;99.90;;;;;;5050175;28;20597;-63
2023/08/28 05:28:02;;;;;;;13.73;8.50;;;13.50;99.90;;;;;;5049383;28;20575;-62
2023/08/28 05:30:30;;;;;;;13.90;9.50;;;13.60;99.90;;;;;;5051964;28;20336;-63
2023/08/28 05:32:58;;;;;;;17.70;8.93;;;13.60;99.90;;;;;;5047998;28;20214;-62
2023/08/28 05:35:27;;;;;;;9.13;8.23;;;13.60;99.90;;;;;;5050000;28;20197;-63
2023/08/28 05:37:56;;;;;;;11.63;8.97;;;13.60;99.90;;;;;;5045208;28;20217;-62
2023/08/28 05:40:25;;;;;;;9.73;8.53;;;13.60;99.90;;;;;;5044888;28;20217;-62
2023/08/28 05:42:54;;;;;;;11.53;8.33;;;13.70;99.90;;;;;;5049316;28;20221;-62
2023/08/28 05:45:22;;;;;;;9.47;8.47;;;13.80;99.90;;;;;;5050254;28;20221;-62
2023/08/28 05:47:50;;;;;;;13.33;8.93;;;13.80;99.90;;;;;;5047542;28;20213;-62
2023/08/28 05:50:19;;;;;;;10.73;8.23;;;13.80;99.90;;;;;;5052479;28;20618;-62
2023/08/28 05:52:47;;;;;;;10.43;8.40;;;13.80;99.90;;;;;;5050353;28;20224;-62
2023/08/28 05:55:17;;;;;;;10.53;8.23;;;13.90;99.90;;;;;;5031968;28;20222;-62
2023/08/28 05:57:45;;;;;;;16.57;8.83;;;13.90;99.90;;;;;;5049039;28;20221;-62
2023/08/28 06:00:14;;;;;;;11.83;8.97;;;14.00;99.90;;;;;;5049483;28;20188;-62
2023/08/28 06:02:43;;;;;;;11.90;8.60;;;14.10;99.90;;;;;;5040730;28;20212;-62
2023/08/28 06:05:12;;;;;;;11.93;8.73;;;14.20;99.90;;;;;;5044034;28;20246;-62
2023/08/28 06:07:40;;;;;;;17.23;9.17;;;14.30;99.90;;;;;;5041899;28;20226;-62
2023/08/28 06:10:11;;;;;;;9.90;8.20;;;14.40;99.90;;;;;;5048613;28;20668;-62
2023/08/28 06:12:41;;;;;;;11.03;7.67;;;14.60;99.90;;;;;;5045639;28;20666;-62
2023/08/28 06:15:10;;;;;;;9.50;7.73;;;14.70;99.90;;;;;;5045691;28;20651;-62
2023/08/28 06:17:38;;;;;;;10.00;7.23;;;14.90;99.90;;;;;;5050037;28;20197;-62
2023/08/28 06:20:09;;;;;;;10.90;6.90;;;15.10;99.90;;;;;;5051174;28;20244;-62
2023/08/28 06:22:38;;;;;;;9.47;6.60;;;15.20;99.90;;;;;;5042719;28;20298;-62
2023/08/28 06:25:08;;;;;;;6.03;5.53;;;15.40;99.90;;;;;;5047415;28;20679;-62
2023/08/28 06:27:36;;;;;;;6.90;5.43;;;15.50;99.90;;;;;;5044532;28;20316;-62
2023/08/28 06:30:07;;;;;;;6.40;5.50;;;15.70;99.90;;;;;;5044104;28;20248;-62
2023/08/28 06:32:35;;;;;;;6.80;4.83;;;15.80;99.90;;;;;;5047592;28;20266;-62
2023/08/28 06:35:04;;;;;;;6.53;5.27;;;15.90;99.90;;;;;;5042950;28;20628;-62
2023/08/28 06:37:32;;;;;;;5.00;4.60;;;16.10;99.90;;;;;;5049954;28;20216;-62
2023/08/28 06:40:02;;;;;;;5.97;4.87;;;16.20;99.90;;;;;;5045719;28;20230;-62
2023/08/28 06:42:31;;;;;;;4.67;4.37;;;16.40;99.90;;;;;;5047787;28;20319;-62
2023/08/28 06:44:59;;;;;;;5.47;4.90;;;16.50;99.90;;;;;;5044873;28;20543;-62
2023/08/28 06:47:30;;;;;;;4.97;4.37;;;16.60;99.90;;;;;;5052155;28;20205;-62
2023/08/28 06:49:58;;;;;;;6.03;4.27;;;16.60;99.90;;;;;;5049138;28;20274;-62
2023/08/28 06:52:27;;;;;;;6.60;3.87;;;16.70;99.90;;;;;;5049532;28;20212;-62
2023/08/28 06:54:55;;;;;;;5.97;4.93;;;16.70;99.90;;;;;;5046870;28;20223;-62
2023/08/28 06:57:23;;;;;;;4.77;3.90;;;16.80;99.90;;;;;;5040524;28;20297;-62
2023/08/28 06:59:53;;;;;;;9.53;4.27;;;16.90;99.90;;;;;;5047654;28;20188;-62
2023/08/28 07:02:21;;;;;;;4.10;3.80;;;17.00;99.90;;;;;;5043156;28;20227;-62
2023/08/28 07:04:51;;;;;;;5.83;4.30;;;17.20;99.90;;;;;;5049171;28;20237;-62
2023/08/28 07:07:19;;;;;;;4.87;3.90;;;17.30;99.90;;;;;;5047396;28;20246;-62
2023/08/28 07:09:48;;;;;;;5.13;3.90;;;17.40;99.90;;;;;;5042756;28;20212;-62
2023/08/28 07:12:16;;;;;;;5.43;3.30;;;17.50;99.90;;;;;;5045202;28;20228;-62
2023/08/28 07:14:44;;;;;;;4.43;3.40;;;17.60;99.90;;;;;;5044790;28;20201;-63
2023/08/28 07:17:13;;;;;;;6.60;3.43;;;17.60;99.90;;;;;;5022954;28;20227;-63
2023/08/28 07:19:41;;;;;;;4.80;3.40;;;17.80;99.90;;;;;;5047907;28;20225;-62
2023/08/28 07:22:11;;;;;;;5.73;3.10;;;17.90;99.90;;;;;;5045184;28;20232;-63
2023/08/28 07:24:39;;;;;;;3.17;2.83;;;17.90;99.90;;;;;;5043178;28;20224;-62
2023/08/28 07:27:07;;;;;;;3.53;3.17;;;18.00;99.90;;;;;;5037069;28;20735;-62
2023/08/28 07:29:37;;;;;;;5.70;2.77;;;18.20;99.90;;;;;;5042756;28;20193;-63
2023/08/28 07:32:06;;;;;;;8.03;3.47;;;18.40;99.90;;;;;;5025721;28;20638;-62
2023/08/28 07:34:34;;;;;;;4.37;2.80;;;18.60;99.90;;;;;;5043529;28;20232;-63
2023/08/28 07:37:04;;;;;;;3.20;2.90;;;18.70;99.90;;;;;;5046160;28;20213;-63
2023/08/28 07:39:35;;;;;;;3.83;2.63;;;18.80;99.90;;;;;;5026675;28;20229;-62
2023/08/28 07:42:03;;;;;;;3.60;2.33;;;19.00;99.90;;;;;;5029947;28;20196;-62
2023/08/28 07:44:32;;;;;;;2.20;2.10;;;19.10;99.90;;;;;;5046428;28;20299;-62
2023/08/28 07:47:00;;;;;;;2.70;2.43;;;19.30;99.90;;;;;;5047698;28;20223;-62
2023/08/28 07:49:28;;;;;;;2.73;2.53;;;19.30;99.90;;;;;;5045224;28;20305;-62
2023/08/28 07:51:57;;;;;;;8.93;2.30;;;19.40;99.90;;;;;;5028095;28;20240;-62
2023/08/28 07:54:25;;;;;;;3.30;2.30;;;19.50;99.90;;;;;;5047916;28;20315;-62
2023/08/28 07:56:55;;;;;;;2.63;2.43;;;19.40;99.90;;;;;;5048081;28;20193;-62
2023/08/28 07:59:24;;;;;;;8.27;2.60;;;19.40;99.90;;;;;;5047476;28;20651;-63
2023/08/28 08:01:52;;;;;;;2.63;2.43;;;19.30;99.90;;;;;;5046425;28;20704;-63
2023/08/28 08:04:20;;;;;;;6.73;2.47;;;19.40;99.90;;;;;;5050420;28;20236;-62
2023/08/28 08:06:48;;;;;;;6.30;2.70;;;19.40;99.90;;;;;;5045367;28;20225;-63
2023/08/28 08:09:17;;;;;;;2.43;2.33;;;19.50;99.90;;;;;;5047743;28;20221;-63
2023/08/28 08:11:46;;;;;;;2.60;2.40;;;19.50;99.90;;;;;;5044817;28;20194;-63
2023/08/28 08:14:15;;;;;;;2.70;2.50;;;19.60;99.90;;;;;;5044855;28;20315;-63
2023/08/28 08:16:44;;;;;;;2.60;2.40;;;19.70;99.90;;;;;;5048465;28;20213;-63
2023/08/28 08:19:12;;;;;;;3.70;2.37;;;19.80;99.90;;;;;;5048986;28;20220;-63
2023/08/28 08:21:40;;;;;;;2.87;2.10;;;19.80;99.90;;;;;;5047095;28;20313;-62
2023/08/28 08:24:09;;;;;;;2.63;2.10;;;19.80;99.90;;;;;;5046144;28;20583;-62
2023/08/28 08:26:38;;;;;;;3.63;2.00;;;19.70;99.90;;;;;;5043222;28;20212;-63
2023/08/28 08:29:06;;;;;;;4.53;2.27;;;19.60;99.90;;;;;;5049856;28;20221;-63
2023/08/28 08:31:36;;;;;;;2.97;2.00;;;19.50;99.90;;;;;;5046856;28;20228;-63
2023/08/28 08:34:04;;;;;;;5.33;2.00;;;19.40;99.90;;;;;;5046846;28;20232;-63
2023/08/28 08:36:32;;;;;;;1.40;1.40;;;19.40;99.90;;;;;;5045092;28;20224;-63
2023/08/28 08:39:03;;;;;;;2.13;1.60;;;19.40;99.90;;;;;;5025877;28;20199;-62
2023/08/28 08:41:30;;;;;;;1.80;1.70;;;19.40;99.90;;;;;;5046480;28;20188;-63
2023/08/28 08:43:59;;;;;;;1.60;1.50;;;19.40;99.90;;;;;;5045986;28;20228;-62
2023/08/28 08:46:28;;;;;;;1.73;1.30;;;19.50;99.90;;;;;;5045956;28;20216;-63
2023/08/28 08:49:01;;;;;;;1.50;1.40;;;19.50;99.90;;;;;;5047819;28;20282;-63
2023/08/28 08:51:31;;;;;;;1.90;1.80;;;19.60;99.90;;;;;;5044713;28;20213;-63
2023/08/28 08:54:06;;;;;;;3.90;1.53;;;19.60;99.90;;;;;;5043616;28;20189;-63
2023/08/28 08:56:36;;;;;;;1.50;1.50;;;19.70;99.90;;;;;;5048419;28;20196;-63
2023/08/28 08:59:05;;;;;;;7.07;1.50;;;19.90;99.90;;;;;;5039366;28;20216;-63
2023/08/28 09:01:34;;;;;;;1.90;1.63;;;20.10;99.90;;;;;;5041366;28;20316;-63
2023/08/28 09:04:05;;;;;;;1.87;1.47;;;20.30;99.90;;;;;;5046865;28;20640;-63
2023/08/28 09:06:37;;;;;;;1.40;1.30;;;20.40;99.90;;;;;;5046297;28;20275;-63
2023/08/28 09:09:06;;;;;;;2.27;1.43;;;20.70;99.90;;;;;;5043621;28;20205;-63
2023/08/28 09:11:36;;;;;;;3.73;1.67;;;20.80;99.90;;;;;;5044429;28;20522;-63
2023/08/28 09:14:05;;;;;;;2.23;1.30;;;20.90;99.90;;;;;;5043805;28;20237;-63
2023/08/28 09:16:35;;;;;;;1.30;1.20;;;20.80;99.90;;;;;;5044551;28;20593;-63
2023/08/28 09:19:05;;;;;;;1.50;1.40;;;20.60;99.90;;;;;;5044797;28;20311;-63
2023/08/28 09:21:35;;;;;;;2.07;1.60;;;20.40;99.90;;;;;;5040628;28;20238;-63
2023/08/28 09:24:09;;;;;;;5.00;1.70;;;20.20;99.90;;;;;;5041036;28;20289;-63
2023/08/28 09:26:52;;;;;;;2.73;1.50;;;20.10;99.90;;;;;;5025001;28;20750;-63
2023/08/28 09:29:23;;;;;;;1.93;1.50;;;20.00;99.90;;;;;;5037511;28;20221;-63
2023/08/28 09:32:01;;;;;;;1.57;1.47;;;19.90;99.90;;;;;;5045128;28;20248;-63
2023/08/28 09:34:39;;;;;;;1.40;1.30;;;19.90;99.90;;;;;;5047090;28;20233;-63
2023/08/28 09:37:11;;;;;;;1.50;1.40;;;20.00;99.90;;;;;;5041044;28;20306;-62
2023/08/28 09:39:40;;;;;;;1.60;1.50;;;20.10;99.90;;;;;;5048709;28;20274;-62
2023/08/28 09:42:14;;;;;;;1.93;1.17;;;20.10;99.90;;;;;;5045834;28;20204;-62
2023/08/28 09:44:50;;;;;;;1.60;1.50;;;20.20;99.90;;;;;;5052529;28;20185;-63
2023/08/28 09:47:21;;;;;;;1.30;1.30;;;20.40;99.90;;;;;;5050119;28;20213;-63
2023/08/28 09:49:52;;;;;;;3.00;1.30;;;20.50;99.90;;;;;;5045130;28;20237;-63
2023/08/28 09:52:25;;;;;;;1.70;1.60;;;20.60;99.90;;;;;;5050497;28;20226;-63
2023/08/28 09:55:03;;;;;;;7.37;1.67;;;20.60;99.90;;;;;;5044562;28;20213;-63
2023/08/28 09:57:31;;;;;;;1.83;1.67;;;20.40;99.90;;;;;;5042535;28;20228;-62
2023/08/28 10:00:00;;;;;;;3.33;1.70;;;20.20;99.90;;;;;;5047590;28;20265;-62
2023/08/28 10:02:29;;;;;;;1.90;1.80;;;20.00;99.90;;;;;;5046890;28;20203;-63
2023/08/28 10:05:00;;;;;;;1.87;1.67;;;20.10;99.90;;;;;;5047421;28;20705;-63
2023/08/28 10:07:29;;;;;;;3.67;1.60;;;20.60;99.90;;;;;;5042138;28;20336;-63
2023/08/28 10:10:03;;;;;;;1.77;1.50;;;21.10;99.90;;;;;;5049618;28;20241;-63
2023/08/28 10:12:36;;;;;;;9.00;2.00;;;21.40;99.90;;;;;;5047762;28;20278;-62
2023/08/28 10:15:05;;;;;;;2.13;1.60;;;21.70;99.90;;;;;;5047961;28;20616;-62
2023/08/28 10:17:36;;;;;;;1.87;1.40;;;22.10;99.90;;;;;;5049994;28;20228;-63
2023/08/28 10:20:09;;;;;;;2.00;1.90;;;22.60;99.90;;;;;;5048325;28;20229;-63
2023/08/28 10:22:39;;;;;;;1.95;1.60;;;23.00;99.90;;;;;;5045254;28;20234;-62
2023/08/28 10:25:09;;;;;;;2.20;1.98;;;23.10;99.90;;;;;;5049135;28;20695;-62
2023/08/28 10:27:37;;;;;;;2.45;1.65;;;23.40;99.90;;;;;;5053606;28;20228;-62
2023/08/28 10:30:09;;;;;;;2.58;1.85;;;23.80;99.90;;;;;;5044814;28;20214;-62
2023/08/28 10:32:39;;;;;;;1.90;1.80;;;24.00;99.90;;;;;;5051777;28;20264;-61
2023/08/28 10:35:10;;;;;;;2.00;1.90;;;24.20;99.90;;;;;;5051448;28;20242;-61
2023/08/28 10:37:40;;;;;;;2.05;1.85;;;24.20;99.90;;;;;;5041454;28;20221;-64
2023/08/28 10:40:10;;;;;;;1.60;1.50;;;24.20;99.90;;;;;;5054230;28;20686;-62
2023/08/28 10:42:41;;;;;;;1.95;1.60;;;24.20;99.90;;;;;;5054504;28;20746;-62
2023/08/28 10:45:10;;;;;;;3.40;1.88;;;24.50;99.90;;;;;;5053790;28;20200;-62
2023/08/28 10:47:49;;;;;;;2.45;1.65;;;24.90;99.90;;;;;;5054900;28;20195;-63
2023/08/28 10:50:19;;;;;;;1.70;1.60;;;24.90;99.90;;;;;;5046325;28;20223;-63
2023/08/28 10:52:48;;;;;;;3.55;1.33;;;24.50;99.90;;;;;;5054411;28;20258;-62
2023/08/28 10:55:19;;;;;;;2.03;1.55;;;24.20;99.90;;;;;;5054339;28;20226;-62
2023/08/28 10:57:50;;;;;;;1.63;1.52;;;24.10;99.90;;;;;;5035008;28;20707;-63
2023/08/28 11:00:21;;;;;;;2.30;1.55;;;23.80;99.90;;;;;;5035776;28;20227;-62
2023/08/28 11:03:08;;;;;;;1.20;1.20;;;23.40;99.90;;;;;;5054883;28;20288;-63
2023/08/28 11:05:40;;;;;;;1.07;1.00;;;23.10;99.90;;;;;;5054227;28;20355;-63
2023/08/28 11:08:11;;;;;;;1.37;1.30;;;22.70;99.90;;;;;;5054577;28;20568;-62
2023/08/28 11:10:44;;;;;;;2.23;1.40;;;22.40;99.90;;;;;;5054617;28;20229;-63
2023/08/28 11:13:21;;;;;;;1.50;1.40;;;22.40;99.90;;;;;;5054436;28;20225;-62
2023/08/28 11:15:51;;;;;;;4.07;1.60;;;22.10;99.90;;;;;;5037422;28;20227;-67
2023/08/28 11:18:30;;;;;;;3.30;1.80;;;22.10;99.90;;;;;;5047565;28;20314;-66
2023/08/28 11:21:02;;;;;;;2.63;1.50;;;22.10;99.90;;;;;;5039764;28;20192;-61
2023/08/28 11:23:36;;;;;;;1.80;1.30;;;22.90;99.90;;;;;;5046628;28;20189;-63
2023/08/28 11:26:28;;;;;;;1.50;1.40;;;23.70;99.90;;;;;;5043468;28;20221;-68
2023/08/28 11:28:57;;;;;;;3.00;1.55;;;24.30;99.90;;;;;;5046774;28;20212;-65
2023/08/28 11:31:33;;;;;;;1.55;1.45;;;24.70;99.90;;;;;;5049857;28;20227;-63
2023/08/28 11:34:03;;;;;;;2.10;1.17;;;24.90;99.90;;;;;;5054436;28;20230;-63
2023/08/28 11:36:40;;;;;;;2.90;1.70;;;25.20;99.90;;;;;;5046275;28;20628;-63
2023/08/28 11:39:20;;;;;;;1.88;1.58;;;25.00;99.90;;;;;;5043809;28;20183;-63
2023/08/28 11:41:49;;;;;;;3.70;1.80;;;24.40;99.90;;;;;;5047022;28;20188;-63
2023/08/28 11:44:17;;;;;;;2.67;1.90;;;23.70;99.90;;;;;;5051286;28;20228;-63
2023/08/28 11:46:46;;;;;;;3.17;1.87;;;23.20;99.90;;;;;;5045141;28;20688;-63
2023/08/28 11:49:14;;;;;;;1.70;1.60;;;23.50;99.90;;;;;;5046182;28;20221;-63
2023/08/28 11:51:44;;;;;;;3.17;1.83;;;23.80;99.90;;;;;;5042774;28;20237;-63
2023/08/28 11:54:12;;;;;;;3.27;1.97;;;24.10;99.90;;;;;;5049403;28;20258;-63
2023/08/28 11:56:41;;;;;;;3.25;1.50;;;24.20;99.90;;;;;;5050522;28;20550;-63
2023/08/28 11:59:10;;;;;;;1.98;1.88;;;24.60;99.90;;;;;;5048466;28;20218;-63
2023/08/28 12:01:38;;;;;;;1.77;1.60;;;24.60;99.90;;;;;;5045628;28;20598;-63
2023/08/28 12:04:07;;;;;;;1.85;1.75;;;24.50;99.90;;;;;;5051956;28;20687;-63
2023/08/28 12:06:39;;;;;;;1.90;1.80;;;24.70;99.90;;;;;;5049240;28;20727;-63
2023/08/28 12:09:12;;;;;;;4.53;1.97;;;24.70;99.90;;;;;;5041781;28;20182;-63
2023/08/28 12:11:42;;;;;;;3.38;2.10;;;24.50;99.90;;;;;;5045378;28;20212;-63
2023/08/28 12:14:17;;;;;;;2.20;1.70;;;24.20;99.90;;;;;;5046007;28;20225;-63
2023/08/28 12:16:45;;;;;;;2.80;1.90;;;23.70;99.90;;;;;;5045330;28;20225;-63
2023/08/28 12:19:20;;;;;;;4.00;1.70;;;23.60;99.90;;;;;;5050478;28;20228;-64
2023/08/28 12:21:49;;;;;;;4.47;1.70;;;23.40;99.90;;;;;;5048560;28;20312;-63
2023/08/28 12:24:19;;;;;;;1.97;1.40;;;23.70;99.90;;;;;;5045199;28;20315;-63
2023/08/28 12:26:47;;;;;;;1.57;1.47;;;24.10;99.90;;;;;;5049438;28;20284;-63
2023/08/28 12:29:15;;;;;;;2.53;1.80;;;24.30;99.90;;;;;;5043045;28;20220;-63
2023/08/28 12:31:48;;;;;;;2.80;1.60;;;24.40;99.90;;;;;;5049745;28;20231;-63
2023/08/28 12:34:17;;;;;;;3.57;2.20;;;24.60;99.90;;;;;;5046856;28;20233;-64
2023/08/28 12:36:46;;;;;;;1.70;1.70;;;24.40;99.90;;;;;;5050361;28;20237;-63
2023/08/28 12:39:16;;;;;;;4.23;2.00;;;24.30;99.90;;;;;;5041476;28;20321;-63
2023/08/28 12:41:51;;;;;;;2.73;1.80;;;24.20;99.90;;;;;;5046705;28;20547;-63
2023/08/28 12:44:20;;;;;;;3.53;1.80;;;24.00;99.90;;;;;;5043391;28;20315;-63
2023/08/28 12:46:48;;;;;;;1.70;1.60;;;24.10;99.90;;;;;;5044662;28;20229;-63
2023/08/28 12:49:17;;;;;;;1.60;1.50;;;24.00;99.90;;;;;;5046905;28;20565;-63
2023/08/28 12:51:45;;;;;;;1.77;1.77;;;23.70;99.90;;;;;;5027407;28;20318;-63
2023/08/28 12:54:19;;;;;;;2.43;1.80;;;23.40;99.90;;;;;;5044986;28;20202;-63
2023/08/28 12:56:48;;;;;;;2.80;1.60;;;23.40;99.90;;;;;;5044061;28;20247;-63
2023/08/28 12:59:19;;;;;;;2.97;1.70;;;23.40;99.90;;;;;;5048957;28;20254;-63